Snowflake, Arizona
Current Conditions -  °F | °C
As of 4:55 PM on Wednesday 22 Oct 2014 (Local Time) from KSOW Reporting Station
Clear Clear  
Wind Chill: 64°   Ceiling: Unl
Heat Index: 64°   Visibility: 10mi
Dew Point: 36°   Wind: 9mph
Humidity: 34%   Direction: 240°WSW
Pressure: 30.22"   Gusts: NA
Location:  34.51°N, 110.08°W
Report Text: KSOW 222355Z AUTO 24008KT 10SM CLR 18/02 A3022 RMK AO2
Loading
Personal Weather Stations






























Interactive Weather Map
Tropical Storm Tracking
New forecast layout! Learn more

10-Day Weather Forecast

Advertisements
Track Severe Weather on mobile